createdAt,value
2017-07-31T00:02:06.437Z,100975
2017-07-31T00:04:34.633Z,100977
2017-07-31T00:07:02.780Z,100967
2017-07-31T00:09:31.694Z,100964
2017-07-31T00:11:59.897Z,100968
2017-07-31T00:14:28.064Z,100967
2017-07-31T00:16:56.240Z,100973
2017-07-31T00:19:24.416Z,100976
2017-07-31T00:21:52.581Z,100978
2017-07-31T00:24:20.744Z,100986
2017-07-31T00:26:48.935Z,100976
2017-07-31T00:29:17.115Z,100977
2017-07-31T00:31:45.293Z,100989
2017-07-31T00:34:13.741Z,100983
2017-07-31T00:36:41.890Z,100980
2017-07-31T00:39:10.810Z,100985
2017-07-31T00:41:38.986Z,100985
2017-07-31T00:44:07.149Z,100978
2017-07-31T00:46:35.317Z,100987
2017-07-31T00:49:03.499Z,100985
2017-07-31T00:51:31.664Z,100986
2017-07-31T00:54:00.596Z,100991
2017-07-31T00:56:28.789Z,100988
2017-07-31T00:58:56.958Z,100987
2017-07-31T01:01:25.101Z,100986
2017-07-31T01:03:53.297Z,100985
2017-07-31T01:06:21.465Z,100985
2017-07-31T01:08:49.641Z,100993
2017-07-31T01:11:17.836Z,100999
2017-07-31T01:13:45.997Z,100995
2017-07-31T01:16:14.146Z,100991
2017-07-31T01:18:42.321Z,100997
2017-07-31T01:21:10.480Z,100998
2017-07-31T01:23:39.410Z,100998
2017-07-31T01:26:07.587Z,100996
2017-07-31T01:28:35.734Z,100984
2017-07-31T01:31:03.881Z,100979
2017-07-31T01:33:32.844Z,100974
2017-07-31T01:36:00.990Z,100957
2017-07-31T01:38:29.158Z,100970
2017-07-31T01:40:57.325Z,100975
2017-07-31T01:43:25.489Z,100981
2017-07-31T01:45:53.633Z,100985
2017-07-31T01:48:21.810Z,100996
2017-07-31T01:50:49.955Z,101007
2017-07-31T01:53:18.128Z,101013
2017-07-31T01:55:46.316Z,101040
2017-07-31T01:58:14.476Z,101036
2017-07-31T02:00:42.622Z,101030
2017-07-31T02:03:10.829Z,101017
2017-07-31T02:05:38.997Z,101001
2017-07-31T02:08:07.159Z,101009
2017-07-31T02:10:35.346Z,101013
2017-07-31T02:13:03.490Z,101024
2017-07-31T02:15:31.653Z,101040
2017-07-31T02:17:59.851Z,101048
2017-07-31T02:20:27.994Z,101050
2017-07-31T02:22:56.927Z,101045
2017-07-31T02:25:24.673Z,101056
2017-07-31T02:27:52.845Z,101037
2017-07-31T02:30:20.995Z,101032
2017-07-31T02:32:49.957Z,101022
2017-07-31T02:35:18.134Z,101009
2017-07-31T02:37:46.301Z,101007
2017-07-31T02:40:14.475Z,101009
2017-07-31T02:42:42.646Z,101008
2017-07-31T02:45:10.796Z,100998
2017-07-31T02:47:38.522Z,101005
2017-07-31T02:50:06.226Z,101013
2017-07-31T02:52:34.392Z,101007
2017-07-31T02:55:02.607Z,101009
2017-07-31T02:57:31.629Z,101012
2017-07-31T03:02:47.243Z,101017
2017-07-31T03:05:15.389Z,101025
2017-07-31T03:07:43.603Z,101027
2017-07-31T03:10:11.803Z,101010
2017-07-31T03:12:39.982Z,101011
2017-07-31T03:15:08.159Z,101023
2017-07-31T03:17:36.330Z,101013
2017-07-31T03:20:04.497Z,101017
2017-07-31T03:22:32.639Z,101017
2017-07-31T03:25:01.984Z,101037
2017-07-31T03:27:30.133Z,101040
2017-07-31T03:29:58.298Z,101033
2017-07-31T03:32:26.480Z,101028
2017-07-31T03:34:54.644Z,101047
2017-07-31T03:37:22.819Z,101058
2017-07-31T03:39:51.009Z,101057
2017-07-31T03:42:19.154Z,101061
2017-07-31T03:44:48.081Z,101055
2017-07-31T03:47:16.253Z,101063
2017-07-31T03:49:44.416Z,101066
2017-07-31T03:52:12.580Z,101061
2017-07-31T03:54:41.921Z,101067
2017-07-31T03:57:10.067Z,101067
2017-07-31T03:59:38.239Z,101072
2017-07-31T04:02:06.423Z,101061
2017-07-31T04:04:34.565Z,101073
2017-07-31T04:07:03.501Z,101075
2017-07-31T04:09:31.693Z,101072
2017-07-31T04:11:59.861Z,101067
2017-07-31T04:14:28.024Z,101075
2017-07-31T04:16:56.228Z,101064
2017-07-31T04:19:24.389Z,101067
2017-07-31T04:21:52.558Z,101063
2017-07-31T04:24:20.754Z,101069
2017-07-31T04:26:48.932Z,101060
2017-07-31T04:29:17.093Z,101073
2017-07-31T04:31:45.265Z,101068
2017-07-31T04:34:13.431Z,101065
2017-07-31T04:36:41.588Z,101076
2017-07-31T04:39:09.780Z,101071
2017-07-31T04:41:37.930Z,101063
2017-07-31T04:44:06.082Z,101070
2017-07-31T04:46:35.030Z,101076
2017-07-31T04:49:03.195Z,101069
2017-07-31T04:51:31.361Z,101078
2017-07-31T04:53:59.557Z,101079
2017-07-31T04:56:27.722Z,101070
2017-07-31T04:58:55.884Z,101067
2017-07-31T05:01:24.074Z,101084
2017-07-31T05:03:52.258Z,101081
2017-07-31T05:06:20.411Z,101082
2017-07-31T05:08:48.605Z,101089
2017-07-31T05:11:16.750Z,101087
2017-07-31T05:13:44.918Z,101091
2017-07-31T05:16:13.109Z,101100
2017-07-31T05:18:41.272Z,101095
2017-07-31T05:21:09.437Z,101099
2017-07-31T05:23:37.619Z,101105
2017-07-31T05:26:05.792Z,101103
2017-07-31T05:28:33.959Z,101093
2017-07-31T05:31:02.141Z,101094
2017-07-31T05:33:30.311Z,101095
2017-07-31T05:35:58.467Z,101104
2017-07-31T05:38:27.428Z,101111
2017-07-31T05:40:56.858Z,101101
2017-07-31T05:43:25.788Z,101106
2017-07-31T05:45:53.522Z,101116
2017-07-31T05:48:22.434Z,101111
2017-07-31T05:50:50.629Z,101118
2017-07-31T05:53:18.815Z,101123
2017-07-31T05:55:46.981Z,101123
2017-07-31T05:58:15.136Z,101126
2017-07-31T06:00:43.314Z,101128
2017-07-31T06:03:11.466Z,101123
2017-07-31T06:05:39.617Z,101130
2017-07-31T06:08:07.817Z,101136
2017-07-31T06:10:36.001Z,101135
2017-07-31T06:13:04.145Z,101131
2017-07-31T06:15:32.346Z,101130
2017-07-31T06:18:00.511Z,101130
2017-07-31T06:20:28.681Z,101131
2017-07-31T06:22:56.877Z,101122
2017-07-31T06:25:25.031Z,101134
2017-07-31T06:27:53.962Z,101131
2017-07-31T06:30:22.164Z,101124
2017-07-31T06:32:50.305Z,101131
2017-07-31T06:35:18.450Z,101128
2017-07-31T06:37:46.627Z,101126
2017-07-31T06:40:15.561Z,101125
2017-07-31T06:42:43.710Z,101129
2017-07-31T06:45:11.967Z,101127
2017-07-31T06:47:40.880Z,101125
2017-07-31T06:50:09.047Z,101136
2017-07-31T06:52:37.226Z,101130
2017-07-31T06:55:05.392Z,101131
2017-07-31T06:57:33.542Z,101127
2017-07-31T07:00:01.746Z,101133
2017-07-31T07:02:29.916Z,101118
2017-07-31T07:04:58.073Z,101122
2017-07-31T07:07:27.042Z,101124
2017-07-31T07:09:55.198Z,101122
2017-07-31T07:12:23.366Z,101122
2017-07-31T07:14:51.561Z,101127
2017-07-31T07:17:19.723Z,101125
2017-07-31T07:19:47.896Z,101127
2017-07-31T07:22:16.079Z,101127
2017-07-31T07:24:44.235Z,101138
2017-07-31T07:27:11.973Z,101144
2017-07-31T07:29:39.706Z,101133
2017-07-31T07:32:07.853Z,101141
2017-07-31T07:34:35.999Z,101143
2017-07-31T07:37:04.614Z,101138
2017-07-31T07:39:32.785Z,101134
2017-07-31T07:42:00.956Z,101143
2017-07-31T07:44:29.153Z,101143
2017-07-31T07:46:57.302Z,101139
2017-07-31T07:49:25.051Z,101140
2017-07-31T07:51:52.891Z,101137
2017-07-31T07:54:21.044Z,101131
2017-07-31T07:56:49.962Z,101138
2017-07-31T07:59:18.147Z,101146
2017-07-31T08:01:46.317Z,101143
2017-07-31T08:04:14.466Z,101146
2017-07-31T08:06:42.664Z,101142
2017-07-31T08:09:10.840Z,101142
2017-07-31T08:11:38.999Z,101145
2017-07-31T08:14:07.196Z,101139
2017-07-31T08:16:35.353Z,101142
2017-07-31T08:19:03.525Z,101139
2017-07-31T08:21:31.723Z,101140
2017-07-31T08:23:59.889Z,101138
2017-07-31T08:26:28.051Z,101132
2017-07-31T08:28:56.240Z,101133
2017-07-31T08:31:24.409Z,101148
2017-07-31T08:33:52.589Z,101148
2017-07-31T08:36:20.778Z,101159
2017-07-31T08:38:48.945Z,101156
2017-07-31T08:41:17.096Z,101160
2017-07-31T08:43:46.056Z,101162
2017-07-31T08:46:14.206Z,101164
2017-07-31T08:48:42.369Z,101160
2017-07-31T08:51:10.558Z,101159
2017-07-31T08:53:38.715Z,101161
2017-07-31T08:56:06.885Z,101154
2017-07-31T08:58:35.388Z,101145
2017-07-31T09:01:03.546Z,101151
2017-07-31T09:03:32.025Z,101157
2017-07-31T09:06:00.220Z,101162
2017-07-31T09:08:28.373Z,101165
2017-07-31T09:10:56.518Z,101167
2017-07-31T09:13:24.710Z,101175
2017-07-31T09:15:52.861Z,101164
2017-07-31T09:18:20.586Z,101170
2017-07-31T09:20:48.333Z,101158
2017-07-31T09:23:16.478Z,101167
2017-07-31T09:25:44.654Z,101160
2017-07-31T09:28:13.161Z,101164
2017-07-31T09:30:41.328Z,101165
2017-07-31T09:33:09.481Z,101168
2017-07-31T09:35:37.662Z,101180
2017-07-31T09:38:05.814Z,101184
2017-07-31T09:40:34.289Z,101176
2017-07-31T09:43:02.016Z,101181
2017-07-31T09:45:30.186Z,101181
2017-07-31T09:47:58.330Z,101193
2017-07-31T09:50:26.088Z,101200
2017-07-31T09:52:55.017Z,101184
2017-07-31T09:55:23.176Z,101197
2017-07-31T09:57:50.924Z,101193
2017-07-31T10:00:18.644Z,101190
2017-07-31T10:02:46.349Z,101189
2017-07-31T10:05:14.114Z,101193
2017-07-31T10:07:41.835Z,101194
2017-07-31T10:10:09.560Z,101188
2017-07-31T10:12:37.756Z,101187
2017-07-31T10:15:05.902Z,101197
2017-07-31T10:17:34.059Z,101193
2017-07-31T10:20:02.585Z,101197
2017-07-31T10:22:30.297Z,101192
2017-07-31T10:24:58.774Z,101189
2017-07-31T10:27:26.501Z,101190
2017-07-31T10:29:54.681Z,101192
2017-07-31T10:32:22.866Z,101190
2017-07-31T10:34:51.041Z,101204
2017-07-31T10:37:19.182Z,101209
2017-07-31T10:39:47.345Z,101189
2017-07-31T10:42:15.534Z,101196
2017-07-31T10:44:43.689Z,101198
2017-07-31T10:47:11.837Z,101214
2017-07-31T10:49:40.789Z,101210
2017-07-31T10:52:08.941Z,101209
2017-07-31T10:54:37.112Z,101224
2017-07-31T10:57:05.279Z,101227
2017-07-31T10:59:33.441Z,101233
2017-07-31T11:02:02.382Z,101225
2017-07-31T11:04:30.560Z,101220
2017-07-31T11:06:58.750Z,101215
2017-07-31T11:09:26.925Z,101226
2017-07-31T11:11:55.174Z,101220
2017-07-31T11:14:23.326Z,101211
2017-07-31T11:16:51.474Z,101207
2017-07-31T11:19:20.421Z,101215
2017-07-31T11:21:48.573Z,101213
2017-07-31T11:24:16.723Z,101218
2017-07-31T11:26:44.925Z,101211
2017-07-31T11:29:12.647Z,101209
2017-07-31T11:31:40.364Z,101207
2017-07-31T11:34:08.089Z,101213
2017-07-31T11:36:36.577Z,101217
2017-07-31T11:39:04.730Z,101236
2017-07-31T11:41:33.685Z,101234
2017-07-31T11:44:01.857Z,101236
2017-07-31T11:46:30.034Z,101220
2017-07-31T11:48:58.202Z,101221
2017-07-31T11:51:26.347Z,101208
2017-07-31T11:53:54.514Z,101211
2017-07-31T11:56:23.469Z,101230
2017-07-31T11:58:51.617Z,101232
2017-07-31T12:01:19.770Z,101228
2017-07-31T12:03:47.986Z,101236
2017-07-31T12:06:16.139Z,101241
2017-07-31T12:08:44.312Z,101226
2017-07-31T12:11:12.497Z,101227
2017-07-31T12:13:40.661Z,101233
2017-07-31T12:16:08.841Z,101230
2017-07-31T12:18:37.052Z,101227
2017-07-31T12:21:05.220Z,101234
2017-07-31T12:23:33.392Z,101228
2017-07-31T12:26:01.640Z,101232
2017-07-31T12:28:29.817Z,101225
2017-07-31T12:30:57.978Z,101229
2017-07-31T12:33:26.162Z,101218
2017-07-31T12:35:54.353Z,101225
2017-07-31T12:38:22.529Z,101227
2017-07-31T12:40:50.730Z,101232
2017-07-31T12:43:19.661Z,101222
2017-07-31T12:45:47.849Z,101221
2017-07-31T12:48:16.059Z,101227
2017-07-31T12:50:44.235Z,101223
2017-07-31T12:53:12.386Z,101218
2017-07-31T12:55:40.565Z,101225
2017-07-31T12:58:08.745Z,101225
2017-07-31T13:00:36.918Z,101219
2017-07-31T13:03:05.095Z,101213
2017-07-31T13:05:33.280Z,101203
2017-07-31T13:08:01.450Z,101196
2017-07-31T13:10:29.635Z,101200
2017-07-31T13:12:58.582Z,101198
2017-07-31T13:15:26.749Z,101198
2017-07-31T13:17:54.937Z,101197
2017-07-31T13:20:23.116Z,101189
2017-07-31T13:22:51.290Z,101188
2017-07-31T13:25:19.467Z,101196
2017-07-31T13:27:47.621Z,101193
2017-07-31T13:30:15.766Z,101200
2017-07-31T13:32:43.963Z,101193
2017-07-31T13:35:12.140Z,101193
2017-07-31T13:37:40.317Z,101190
2017-07-31T13:40:08.488Z,101178
2017-07-31T13:42:36.650Z,101191
2017-07-31T13:45:04.822Z,101192
2017-07-31T13:47:33.368Z,101185
2017-07-31T13:50:01.536Z,101188
2017-07-31T13:52:29.711Z,101195
2017-07-31T13:54:57.911Z,101195
2017-07-31T13:57:26.856Z,101194
2017-07-31T13:59:55.009Z,101192
2017-07-31T14:02:23.191Z,101199
2017-07-31T14:04:51.376Z,101185
2017-07-31T14:07:19.553Z,101187
2017-07-31T14:09:47.747Z,101190
2017-07-31T14:12:15.921Z,101184
2017-07-31T14:14:44.082Z,101183
2017-07-31T14:17:12.292Z,101182
2017-07-31T14:19:40.469Z,101175
2017-07-31T14:22:08.634Z,101181
2017-07-31T14:24:36.816Z,101182
2017-07-31T14:27:04.974Z,101177
2017-07-31T14:29:33.151Z,101181
2017-07-31T14:32:01.331Z,101181
2017-07-31T14:34:29.509Z,101179
2017-07-31T14:36:57.686Z,101171
2017-07-31T14:39:25.866Z,101163
2017-07-31T14:41:54.036Z,101157
2017-07-31T14:44:22.202Z,101152
2017-07-31T14:46:50.406Z,101146
2017-07-31T14:49:19.340Z,101151
2017-07-31T14:51:47.503Z,101153
2017-07-31T14:54:15.709Z,101157
2017-07-31T14:56:43.881Z,101155
2017-07-31T14:59:12.035Z,101148
2017-07-31T15:01:40.207Z,101151
2017-07-31T15:04:08.372Z,101148
2017-07-31T15:06:36.544Z,101155
2017-07-31T15:09:04.722Z,101164
2017-07-31T15:11:32.890Z,101158
2017-07-31T15:14:01.046Z,101155
2017-07-31T15:16:30.009Z,101161
2017-07-31T15:18:58.195Z,101158
2017-07-31T15:21:27.141Z,101155
2017-07-31T15:23:55.344Z,101157
2017-07-31T15:26:23.527Z,101154
2017-07-31T15:28:51.704Z,101157
2017-07-31T15:31:19.875Z,101152
2017-07-31T15:33:48.039Z,101160
2017-07-31T15:36:16.187Z,101154
2017-07-31T15:38:44.352Z,101142
2017-07-31T15:41:12.507Z,101149
2017-07-31T15:43:40.689Z,101149
2017-07-31T15:46:08.881Z,101154
2017-07-31T15:48:37.029Z,101147
2017-07-31T15:51:05.971Z,101132
2017-07-31T15:53:34.160Z,101136
2017-07-31T15:56:02.321Z,101130
2017-07-31T15:58:30.470Z,101133
2017-07-31T16:00:58.656Z,101140
2017-07-31T16:03:26.821Z,101138
2017-07-31T16:05:54.971Z,101125
2017-07-31T16:08:23.155Z,101125
2017-07-31T16:10:51.316Z,101126
2017-07-31T16:13:20.247Z,101129
2017-07-31T16:15:48.438Z,101125
2017-07-31T16:18:16.616Z,101117
2017-07-31T16:20:44.785Z,101122
2017-07-31T16:23:12.992Z,101118
2017-07-31T16:25:41.938Z,101127
2017-07-31T16:28:10.867Z,101119
2017-07-31T16:30:39.077Z,101128
2017-07-31T16:33:07.244Z,101127
2017-07-31T16:35:35.424Z,101135
2017-07-31T16:38:03.650Z,101149
2017-07-31T16:40:49.740Z,101143
2017-07-31T16:43:35.839Z,101147
2017-07-31T16:46:23.690Z,101151
2017-07-31T16:49:09.813Z,101144
2017-07-31T16:51:38.736Z,101158
2017-07-31T16:54:06.909Z,101154
2017-07-31T16:56:35.112Z,101162
2017-07-31T16:59:03.289Z,101160
2017-07-31T17:01:31.472Z,101158
2017-07-31T17:03:59.661Z,101154
2017-07-31T17:06:28.591Z,101152
2017-07-31T17:08:56.902Z,101159
2017-07-31T17:11:25.094Z,101166
2017-07-31T17:13:53.306Z,101166
2017-07-31T17:16:21.491Z,101173
2017-07-31T17:18:49.685Z,101178
2017-07-31T17:21:17.874Z,101180
2017-07-31T17:23:49.033Z,101175
2017-07-31T17:26:17.232Z,101172
2017-07-31T17:28:46.176Z,101174
2017-07-31T17:31:17.109Z,101181
2017-07-31T17:33:47.225Z,101187
2017-07-31T17:36:15.413Z,101178
2017-07-31T17:38:43.663Z,101181
2017-07-31T17:41:11.870Z,101182
2017-07-31T17:43:40.030Z,101189
2017-07-31T17:46:08.245Z,101178
2017-07-31T17:48:36.457Z,101180
2017-07-31T17:51:04.628Z,101183
2017-07-31T17:53:33.780Z,101180
2017-07-31T17:56:03.174Z,101183
2017-07-31T17:58:31.362Z,101189
2017-07-31T18:00:59.530Z,101191
2017-07-31T18:03:27.731Z,101192
2017-07-31T18:05:55.970Z,101196
2017-07-31T18:08:24.126Z,101197
2017-07-31T18:10:52.305Z,101206
2017-07-31T18:13:20.463Z,101203
2017-07-31T18:15:48.637Z,101192
2017-07-31T18:18:16.814Z,101195
2017-07-31T18:20:44.972Z,101203
2017-07-31T18:23:13.904Z,101210
2017-07-31T18:25:42.090Z,101229
2017-07-31T18:28:10.279Z,101226
2017-07-31T18:30:39.234Z,101219
2017-07-31T18:33:07.411Z,101225
2017-07-31T18:35:35.565Z,101223
2017-07-31T18:38:03.721Z,101231
2017-07-31T18:40:32.697Z,101242
2017-07-31T18:43:00.846Z,101241
2017-07-31T18:45:28.999Z,101247
2017-07-31T18:47:57.197Z,101246
2017-07-31T18:50:25.349Z,101258
2017-07-31T18:52:53.517Z,101261
2017-07-31T18:55:21.722Z,101272
2017-07-31T18:57:49.870Z,101273
2017-07-31T19:00:18.057Z,101277
2017-07-31T19:02:46.227Z,101282
2017-07-31T19:05:14.371Z,101285
2017-07-31T19:07:43.277Z,101286
2017-07-31T19:10:11.476Z,101291
2017-07-31T19:12:39.650Z,101285
2017-07-31T19:15:07.821Z,101287
2017-07-31T19:17:36.017Z,101290
2017-07-31T19:20:04.162Z,101284
2017-07-31T19:22:32.308Z,101295
2017-07-31T19:25:01.261Z,101296
2017-07-31T19:27:29.432Z,101297
2017-07-31T19:29:57.570Z,101297
2017-07-31T19:32:26.535Z,101295
2017-07-31T19:34:54.690Z,101299
2017-07-31T19:37:22.854Z,101289
2017-07-31T19:39:51.022Z,101301
2017-07-31T19:42:19.184Z,101292
2017-07-31T19:44:47.331Z,101294
2017-07-31T19:47:16.294Z,101294
2017-07-31T19:49:44.460Z,101301
2017-07-31T19:52:12.612Z,101303
2017-07-31T19:54:40.817Z,101294
2017-07-31T19:57:08.968Z,101301
2017-07-31T19:59:37.124Z,101301
2017-07-31T20:02:05.298Z,101297
2017-07-31T20:04:33.482Z,101298
2017-07-31T20:07:02.152Z,101300
2017-07-31T20:09:31.102Z,101309
2017-07-31T20:12:06.741Z,101305
2017-07-31T20:14:37.467Z,101305
2017-07-31T20:17:06.918Z,101300
2017-07-31T20:19:36.110Z,101303
2017-07-31T20:22:04.878Z,101305
2017-07-31T20:24:33.503Z,101310
2017-07-31T20:27:02.149Z,101316
2017-07-31T20:29:31.680Z,101314
2017-07-31T20:32:00.596Z,101316
2017-07-31T20:34:28.743Z,101323
2017-07-31T20:36:58.145Z,101326
2017-07-31T20:39:26.839Z,101317
2017-07-31T20:41:55.738Z,101316
2017-07-31T20:44:25.661Z,101318
2017-07-31T20:46:53.877Z,101321
2017-07-31T20:49:22.026Z,101319
2017-07-31T20:51:50.217Z,101315
2017-07-31T20:54:18.387Z,101326
2017-07-31T20:56:46.564Z,101322
2017-07-31T20:59:14.751Z,101326
2017-07-31T21:01:42.926Z,101331
2017-07-31T21:04:11.106Z,101326
2017-07-31T21:06:39.310Z,101329
2017-07-31T21:09:08.254Z,101321
2017-07-31T21:11:36.409Z,101315
2017-07-31T21:14:04.587Z,101321
2017-07-31T21:16:32.742Z,101317
2017-07-31T21:19:00.902Z,101307
2017-07-31T21:21:29.855Z,101314
2017-07-31T21:23:58.015Z,101318
2017-07-31T21:26:26.667Z,101314
2017-07-31T21:28:55.539Z,101319
2017-07-31T21:31:24.121Z,101326
2017-07-31T21:33:52.704Z,101322
2017-07-31T21:36:20.949Z,101324
2017-07-31T21:38:49.573Z,101335
2017-07-31T21:41:17.788Z,101339
2017-07-31T21:43:45.967Z,101330
2017-07-31T21:46:14.137Z,101323
2017-07-31T21:48:42.301Z,101319
2017-07-31T21:51:11.124Z,101329
2017-07-31T21:53:39.340Z,101329
2017-07-31T21:56:08.280Z,101335
2017-07-31T21:58:36.462Z,101333
2017-07-31T22:01:04.637Z,101334
2017-07-31T22:03:32.811Z,101333
2017-07-31T22:06:00.990Z,101333
2017-07-31T22:08:29.153Z,101332
2017-07-31T22:10:57.318Z,101334
2017-07-31T22:13:25.509Z,101333
2017-07-31T22:15:53.678Z,101333
2017-07-31T22:18:24.857Z,101334
2017-07-31T22:20:58.612Z,101337
2017-07-31T22:23:26.763Z,101338
2017-07-31T22:25:55.675Z,101324
2017-07-31T22:28:24.701Z,101334
2017-07-31T22:30:52.854Z,101335
2017-07-31T22:33:21.028Z,101338
2017-07-31T22:35:49.211Z,101340
2017-07-31T22:38:17.362Z,101333
2017-07-31T22:40:45.526Z,101339
2017-07-31T22:43:13.720Z,101340
2017-07-31T22:45:41.884Z,101348
2017-07-31T22:48:10.035Z,101349
2017-07-31T22:50:38.996Z,101343
2017-07-31T22:53:07.164Z,101334
2017-07-31T22:55:35.330Z,101325
2017-07-31T22:58:03.523Z,101327
2017-07-31T23:00:31.688Z,101334
2017-07-31T23:02:59.849Z,101333
2017-07-31T23:05:28.041Z,101334
2017-07-31T23:07:56.682Z,101326
2017-07-31T23:10:24.885Z,101331
2017-07-31T23:12:53.080Z,101327
2017-07-31T23:15:21.248Z,101314
2017-07-31T23:17:49.390Z,101312
2017-07-31T23:20:17.558Z,101323
2017-07-31T23:22:45.703Z,101323
2017-07-31T23:25:14.644Z,101319
2017-07-31T23:27:42.826Z,101317
2017-07-31T23:30:10.990Z,101319
2017-07-31T23:32:39.162Z,101324
2017-07-31T23:35:07.329Z,101318
2017-07-31T23:37:35.479Z,101317
2017-07-31T23:40:04.413Z,101306
2017-07-31T23:42:32.605Z,101313
2017-07-31T23:45:00.748Z,101315
2017-07-31T23:47:28.923Z,101321
2017-07-31T23:49:57.103Z,101320
2017-07-31T23:52:25.283Z,101323
2017-07-31T23:54:53.439Z,101314
2017-07-31T23:57:23.464Z,101319
2017-07-31T23:59:51.611Z,101319
